Página principal
METAR-TAF:

METAR-TAF

Aeroportos :

Ann Arbor, Michigan, Estados Unidos

latitude: 42-13-26N, longitude: 083-44-24W, altura: 255 m

Observação actual do tempo

O boletim foi feito há 26 minutos, às 20:53 UTC
Vento 7 kt de sul
Temperatura 32°C
Humidade 38%
Pressão 1012 hPa
Visibilidade: 16.1 km
Céu limpo

METAR: KARB 272053Z 19007KT 10SM CLR 32/16 A2988 RMK AO2 SLP109 T03170161 58008

Hora: 17:19 (21:19 UTC)


TAF: em falta

Observações e previsões do tempo de mais de 4000 aeroportos (mensagens METAR e TAF).

As estações disponíveis são os pontos amarelos e vermelhos sobre o mapa.

Mova o rato sobre o mapa para ver o nome da estação.

Depois clique no ponto para visualizar as observações e previsões meteorológicas.

Para alterar o mapa : clique nos botões verdes com uma cruz preta para aumentar o zoom; no botão verde com uma pitada de zoom; ou nas setas verdes para mapas adjacentes.


METAR-TAF: